Decoded Metar for OIAW (AHWAZ in IRAN) (IATA:AWZ) | Meteo·Mobile Aviation Weather
aviador You're here:

OIAW Decoded Metar

AHWAZ in IRAN
Report Time2019-04-19 23:00:00
UTC Time2019-04-19 23:06:45
Flight Rules vfr VFR
Wind110° at 02 kt
W.Decomp.*RWY 12: 1.9 kt HW 0.4 kt LCW
Visibility9999 m
Phenomena:N/A
Clouds:N/A
Expected CloudBase > 2,800 ft AGL from Temp-Dew spread
CeilingNone
Temp19°C (ISA +4)
Dew Point12°C (64% RH)
AAT18.9°C
QNH1007 hPa
Density Alt948 ft
Elevation72 ft
Report Wrong Elevation
Raw Report
METAR OIAW 192300Z 11002KT CAVOK 19/12 Q1007=

Extra information for OIAW:More info

Metar Taf Metar & Taf Last 4 Metars F.Rules Stats Wind Profile Meteogram Temp Stats Airport Information Weather charts Add Link Nearby VenuesMetar ALERT Operation Metar Decoded Social comments